createdAt,value
2023-03-01T00:02:18.179Z,15.75
2023-03-01T00:04:48.678Z,14.48
2023-03-01T00:07:18.972Z,14.77
2023-03-01T00:09:49.382Z,14.70
2023-03-01T00:12:19.584Z,15.32
2023-03-01T00:14:52.602Z,13.80
2023-03-01T00:17:22.890Z,14.93
2023-03-01T00:19:53.241Z,14.68
2023-03-01T00:22:24.513Z,14.35
2023-03-01T00:24:54.747Z,14.68
2023-03-01T00:27:25.078Z,14.05
2023-03-01T00:29:57.941Z,13.82
2023-03-01T00:32:28.275Z,13.77
2023-03-01T00:34:58.566Z,13.40
2023-03-01T00:37:28.971Z,13.23
2023-03-01T00:39:59.279Z,14.50
2023-03-01T00:42:29.547Z,13.82
2023-03-01T00:45:02.469Z,14.50
2023-03-01T00:47:34.005Z,13.70
2023-03-01T00:50:04.356Z,13.15
2023-03-01T00:52:34.735Z,14.65
2023-03-01T00:55:05.160Z,14.02
2023-03-01T00:57:35.527Z,13.20
2023-03-01T01:00:10.699Z,13.80
2023-03-01T01:02:41.131Z,14.68
2023-03-01T01:05:12.229Z,14.18
2023-03-01T01:07:43.009Z,13.70
2023-03-01T01:10:18.134Z,13.35
2023-03-01T01:12:49.617Z,13.38
2023-03-01T01:15:23.380Z,15.07
2023-03-01T01:17:53.703Z,13.90
2023-03-01T01:20:24.256Z,13.65
2023-03-01T01:22:55.075Z,13.52
2023-03-01T01:25:26.029Z,13.52
2023-03-01T01:27:56.470Z,12.60
2023-03-01T01:30:29.416Z,13.40
2023-03-01T01:33:00.148Z,13.07
2023-03-01T01:35:31.287Z,13.40
2023-03-01T01:38:01.599Z,12.75
2023-03-01T01:40:31.863Z,12.13
2023-03-01T01:43:02.129Z,12.00
2023-03-01T01:45:37.697Z,12.70
2023-03-01T01:48:14.506Z,13.32
2023-03-01T01:50:46.215Z,11.95
2023-03-01T01:53:21.812Z,12.82
2023-03-01T01:55:58.163Z,12.10
2023-03-01T01:58:33.298Z,12.65
2023-03-01T02:01:07.035Z,12.63
2023-03-01T02:03:43.436Z,12.52
2023-03-01T02:06:22.156Z,13.57
2023-03-01T02:08:54.807Z,13.43
2023-03-01T02:11:26.762Z,13.35
2023-03-01T02:13:58.028Z,12.68
2023-03-01T02:16:32.366Z,12.30
2023-03-01T02:19:03.488Z,12.20
2023-03-01T02:21:42.496Z,12.80
2023-03-01T02:24:23.261Z,11.55
2023-03-01T02:26:59.059Z,12.90
2023-03-01T02:29:33.168Z,13.48
2023-03-01T02:32:03.829Z,12.52
2023-03-01T02:34:36.032Z,13.15
2023-03-01T02:37:08.913Z,13.07
2023-03-01T02:39:44.248Z,11.57
2023-03-01T02:42:16.984Z,13.35
2023-03-01T02:44:50.603Z,12.30
2023-03-01T02:47:20.955Z,12.23
2023-03-01T02:49:51.375Z,11.82
2023-03-01T02:52:47.314Z,12.82
2023-03-01T02:55:20.074Z,12.45
2023-03-01T02:57:52.445Z,12.00
2023-03-01T03:00:28.992Z,12.23
2023-03-01T03:03:00.575Z,12.32
2023-03-01T03:05:34.060Z,12.70
2023-03-01T03:08:08.708Z,12.60
2023-03-01T03:10:43.978Z,12.57
2023-03-01T03:13:16.704Z,12.68
2023-03-01T03:15:49.800Z,12.55
2023-03-01T03:18:21.299Z,12.35
2023-03-01T03:20:54.133Z,12.30
2023-03-01T03:23:25.215Z,12.15
2023-03-01T03:25:56.300Z,12.20
2023-03-01T03:28:26.734Z,12.60
2023-03-01T03:31:01.977Z,12.25
2023-03-01T03:33:32.335Z,11.93
2023-03-01T03:36:02.815Z,12.63
2023-03-01T03:38:33.124Z,12.38
2023-03-01T03:41:09.468Z,11.90
2023-03-01T03:43:43.724Z,12.18
2023-03-01T03:46:18.191Z,11.32
2023-03-01T03:48:50.490Z,12.52
2023-03-01T03:51:23.823Z,11.95
2023-03-01T03:53:54.237Z,12.57
2023-03-01T03:56:28.649Z,11.70
2023-03-01T03:58:59.179Z,12.27
2023-03-01T04:01:32.224Z,12.18
2023-03-01T04:04:05.212Z,12.68
2023-03-01T04:06:36.311Z,12.20
2023-03-01T04:09:06.778Z,12.80
2023-03-01T04:11:37.172Z,13.05
2023-03-01T04:14:07.490Z,12.68
2023-03-01T04:16:40.456Z,12.38
2023-03-01T04:19:10.738Z,12.95
2023-03-01T04:21:41.356Z,12.60
2023-03-01T04:24:12.240Z,14.65
2023-03-01T04:26:42.653Z,13.52
2023-03-01T04:29:12.991Z,13.20
2023-03-01T04:31:46.167Z,14.10
2023-03-01T04:34:16.542Z,13.50
2023-03-01T04:36:47.015Z,12.57
2023-03-01T04:39:17.341Z,13.82
2023-03-01T04:41:47.630Z,12.05
2023-03-01T04:44:17.934Z,12.85
2023-03-01T04:46:53.165Z,12.48
2023-03-01T04:49:23.562Z,12.27
2023-03-01T04:51:53.797Z,12.30
2023-03-01T04:54:24.082Z,14.35
2023-03-01T04:56:54.390Z,12.73
2023-03-01T04:59:25.611Z,12.90
2023-03-01T05:02:01.497Z,12.75
2023-03-01T05:04:31.808Z,12.55
2023-03-01T05:07:02.518Z,11.50
2023-03-01T05:09:32.742Z,12.05
2023-03-01T05:12:03.098Z,11.32
2023-03-01T05:14:33.566Z,11.65
2023-03-01T05:17:06.557Z,12.10
2023-03-01T05:19:37.179Z,12.30
2023-03-01T05:22:07.540Z,11.95
2023-03-01T05:24:39.679Z,11.70
2023-03-01T05:27:10.154Z,11.52
2023-03-01T05:29:40.587Z,11.75
2023-03-01T05:32:16.677Z,11.25
2023-03-01T05:34:47.920Z,12.77
2023-03-01T05:37:18.551Z,11.70
2023-03-01T05:39:51.481Z,11.48
2023-03-01T05:42:21.826Z,11.30
2023-03-01T05:44:52.173Z,12.10
2023-03-01T05:47:25.223Z,10.68
2023-03-01T05:49:55.519Z,11.18
2023-03-01T05:52:25.805Z,11.30
2023-03-01T05:54:56.431Z,12.23
2023-03-01T05:57:26.955Z,12.20
2023-03-01T05:59:57.274Z,12.13
2023-03-01T06:02:30.373Z,12.30
2023-03-01T06:05:00.844Z,10.75
2023-03-01T06:07:31.276Z,11.70
2023-03-01T06:10:01.665Z,10.90
2023-03-01T06:12:35.145Z,10.27
2023-03-01T06:15:06.200Z,10.73
2023-03-01T06:17:40.235Z,11.07
2023-03-01T06:20:13.630Z,10.93
2023-03-01T06:22:44.529Z,11.23
2023-03-01T06:25:16.339Z,11.50
2023-03-01T06:27:46.733Z,10.45
2023-03-01T06:30:19.068Z,12.15
2023-03-01T06:32:52.766Z,11.25
2023-03-01T06:35:23.539Z,11.38
2023-03-01T06:37:53.858Z,11.65
2023-03-01T06:40:24.209Z,11.40
2023-03-01T06:42:54.857Z,12.30
2023-03-01T06:45:25.564Z,11.88
2023-03-01T06:48:06.328Z,11.93
2023-03-01T06:50:37.835Z,10.43
2023-03-01T06:53:08.413Z,12.35
2023-03-01T06:55:38.768Z,11.95
2023-03-01T06:58:09.202Z,11.43
2023-03-01T07:00:41.940Z,12.10
2023-03-01T07:03:14.983Z,11.73
2023-03-01T07:05:45.549Z,12.88
2023-03-01T07:08:15.848Z,11.45
2023-03-01T07:10:46.102Z,12.25
2023-03-01T07:13:16.461Z,11.23
2023-03-01T07:15:46.840Z,11.73
2023-03-01T07:18:19.774Z,12.50
2023-03-01T07:20:50.128Z,13.25
2023-03-01T07:23:20.698Z,13.93
2023-03-01T07:25:56.649Z,11.57
2023-03-01T07:28:27.290Z,11.88
2023-03-01T07:30:58.773Z,12.52
2023-03-01T07:33:31.762Z,12.00
2023-03-01T07:36:03.193Z,12.50
2023-03-01T07:38:33.687Z,12.65
2023-03-01T07:41:06.682Z,10.75
2023-03-01T07:43:36.987Z,12.07
2023-03-01T07:46:08.128Z,10.63
2023-03-01T07:48:41.111Z,11.38
2023-03-01T07:51:11.927Z,23.60
2023-03-01T07:53:42.258Z,11.48
2023-03-01T07:56:15.482Z,12.05
2023-03-01T07:58:48.695Z,11.88
2023-03-01T08:01:22.780Z,11.30
2023-03-01T08:03:55.710Z,10.88
2023-03-01T08:06:25.979Z,11.45
2023-03-01T08:08:56.448Z,11.95
2023-03-01T08:11:29.189Z,11.75
2023-03-01T08:13:59.565Z,13.60
2023-03-01T08:16:30.406Z,14.50
2023-03-01T08:19:08.071Z,13.40
2023-03-01T08:21:38.641Z,15.48
2023-03-01T08:24:11.400Z,14.65
2023-03-01T08:26:42.038Z,11.20
2023-03-01T08:29:12.338Z,11.75
2023-03-01T08:31:44.291Z,11.88
2023-03-01T08:34:19.970Z,11.30
2023-03-01T08:36:51.206Z,12.05
2023-03-01T08:39:23.574Z,14.85
2023-03-01T08:41:53.887Z,11.65
2023-03-01T08:44:24.661Z,11.65
2023-03-01T08:46:56.699Z,12.77
2023-03-01T08:49:29.649Z,11.93
2023-03-01T08:51:59.982Z,13.82
2023-03-01T08:54:30.681Z,11.95
2023-03-01T08:57:01.858Z,11.55
2023-03-01T08:59:37.187Z,11.38
2023-03-01T09:02:07.663Z,11.10
2023-03-01T09:04:40.650Z,10.82
2023-03-01T09:07:11.940Z,11.15
2023-03-01T09:09:42.357Z,11.55
2023-03-01T09:12:12.957Z,10.20
2023-03-01T09:14:43.356Z,10.57
2023-03-01T09:17:13.702Z,12.07
2023-03-01T09:19:46.789Z,11.60
2023-03-01T09:22:17.053Z,12.68
2023-03-01T09:24:47.544Z,11.80
2023-03-01T09:27:19.948Z,11.02
2023-03-01T09:29:50.391Z,10.52
2023-03-01T09:32:20.877Z,11.63
2023-03-01T09:35:07.595Z,11.77
2023-03-01T09:37:39.680Z,10.33
2023-03-01T09:40:16.787Z,11.10
2023-03-01T09:42:59.212Z,11.68
2023-03-01T09:45:37.361Z,11.02
2023-03-01T09:48:10.016Z,11.30
2023-03-01T09:50:45.676Z,12.10
2023-03-01T09:53:19.819Z,11.45
2023-03-01T09:55:54.683Z,11.23
2023-03-01T09:58:53.054Z,13.23
2023-03-01T10:01:35.967Z,12.30
2023-03-01T10:04:27.944Z,13.43
2023-03-01T10:07:16.025Z,13.13
2023-03-01T10:09:49.114Z,13.45
2023-03-01T10:12:24.412Z,12.23
2023-03-01T10:15:03.653Z,14.45
2023-03-01T10:17:40.343Z,12.70
2023-03-01T10:20:21.763Z,12.98
2023-03-01T10:22:56.577Z,13.63
2023-03-01T10:25:45.101Z,11.75
2023-03-01T10:28:20.793Z,13.32
2023-03-01T10:30:51.321Z,11.60
2023-03-01T10:33:26.033Z,12.02
2023-03-01T10:35:56.640Z,11.75
2023-03-01T10:38:30.694Z,12.38
2023-03-01T10:41:08.212Z,12.07
2023-03-01T10:43:48.881Z,12.38
2023-03-01T10:46:30.722Z,12.57
2023-03-01T10:49:20.770Z,12.48
2023-03-01T10:51:54.621Z,13.32
2023-03-01T10:54:32.111Z,12.43
2023-03-01T10:57:04.955Z,14.25
2023-03-01T10:59:37.281Z,13.88
2023-03-01T11:02:25.682Z,13.50
2023-03-01T11:05:04.376Z,14.95
2023-03-01T11:07:34.688Z,13.57
2023-03-01T11:10:16.409Z,14.98
2023-03-01T11:12:46.783Z,14.93
2023-03-01T11:15:29.966Z,14.35
2023-03-01T11:18:13.004Z,14.80
2023-03-01T11:20:45.197Z,13.60
2023-03-01T11:23:17.764Z,13.68
2023-03-01T11:25:57.271Z,13.90
2023-03-01T11:28:34.493Z,12.80
2023-03-01T11:31:10.032Z,13.50
2023-03-01T11:33:47.332Z,15.25
2023-03-01T11:36:38.504Z,13.82
2023-03-01T11:39:23.009Z,13.82
2023-03-01T11:42:18.280Z,13.80
2023-03-01T11:44:51.779Z,13.32
2023-03-01T11:47:44.507Z,13.43
2023-03-01T11:50:24.238Z,12.63
2023-03-01T11:53:05.614Z,12.43
2023-03-01T11:55:55.444Z,12.23
2023-03-01T11:58:48.723Z,12.05
2023-03-01T12:01:32.657Z,12.80
2023-03-01T12:04:35.831Z,13.13
2023-03-01T12:07:14.797Z,12.52
2023-03-01T12:09:59.159Z,12.75
2023-03-01T12:12:40.057Z,13.10
2023-03-01T12:15:36.990Z,13.32
2023-03-01T12:18:49.125Z,12.50
2023-03-01T12:21:30.895Z,13.02
2023-03-01T12:24:30.575Z,13.35
2023-03-01T12:27:17.292Z,13.40
2023-03-01T12:30:00.449Z,13.77
2023-03-01T12:32:51.052Z,14.38
2023-03-01T12:35:58.040Z,14.02
2023-03-01T12:38:38.746Z,13.60
2023-03-01T12:41:24.131Z,14.77
2023-03-01T12:44:05.150Z,14.88
2023-03-01T12:46:55.021Z,14.10
2023-03-01T12:49:31.724Z,13.65
2023-03-01T12:52:05.836Z,12.32
2023-03-01T12:54:39.404Z,13.32
2023-03-01T12:57:16.189Z,13.02
2023-03-01T12:59:55.049Z,13.55
2023-03-01T13:02:30.687Z,14.02
2023-03-01T13:05:23.439Z,13.13
2023-03-01T13:08:01.613Z,12.55
2023-03-01T13:10:38.343Z,11.77
2023-03-01T13:13:18.469Z,11.60
2023-03-01T13:15:48.974Z,11.07
2023-03-01T13:18:34.420Z,14.80
2023-03-01T13:21:08.743Z,11.75
2023-03-01T13:23:41.414Z,11.75
2023-03-01T13:26:17.658Z,11.63
2023-03-01T13:29:02.248Z,11.10
2023-03-01T13:32:00.615Z,11.45
2023-03-01T13:34:51.520Z,12.18
2023-03-01T13:37:39.218Z,11.75
2023-03-01T13:40:39.400Z,11.27
2023-03-01T13:43:31.870Z,10.15
2023-03-01T13:46:03.527Z,11.35
2023-03-01T13:48:35.432Z,11.35
2023-03-01T13:51:09.248Z,9.98
2023-03-01T13:53:47.085Z,10.23
2023-03-01T13:56:20.562Z,10.13
2023-03-01T13:58:56.441Z,9.57
2023-03-01T14:01:33.095Z,10.55
2023-03-01T14:04:04.949Z,11.43
2023-03-01T14:06:37.536Z,10.68
2023-03-01T14:09:19.425Z,10.88
2023-03-01T14:12:16.284Z,10.60
2023-03-01T14:14:55.042Z,10.38
2023-03-01T14:18:06.445Z,11.57
2023-03-01T14:20:42.521Z,10.35
2023-03-01T14:23:16.767Z,11.03
2023-03-01T14:28:29.821Z,10.05
2023-03-01T14:31:01.541Z,7.78
2023-03-01T14:33:34.472Z,9.93
2023-03-01T14:36:07.714Z,9.85
2023-03-01T14:38:39.411Z,9.90
2023-03-01T14:41:16.598Z,9.02
2023-03-01T14:43:49.929Z,9.60
2023-03-01T14:46:24.820Z,8.90
2023-03-01T14:48:56.562Z,8.48
2023-03-01T14:51:27.356Z,8.82
2023-03-01T14:53:58.147Z,7.68
2023-03-01T14:56:31.538Z,8.02
2023-03-01T14:59:03.156Z,7.60
2023-03-01T15:01:33.857Z,7.85
2023-03-01T15:04:05.387Z,7.68
2023-03-01T15:06:36.026Z,8.18
2023-03-01T15:09:07.512Z,8.23
2023-03-01T15:11:44.644Z,7.85
2023-03-01T15:14:31.519Z,8.40
2023-03-01T15:17:01.899Z,8.68
2023-03-01T15:19:32.746Z,8.00
2023-03-01T15:22:13.112Z,8.82
2023-03-01T15:24:43.619Z,8.38
2023-03-01T15:27:22.878Z,9.77
2023-03-01T15:29:57.481Z,9.65
2023-03-01T15:32:31.846Z,10.63
2023-03-01T15:35:04.275Z,10.18
2023-03-01T15:37:44.443Z,11.15
2023-03-01T15:40:32.600Z,11.02
2023-03-01T15:43:07.395Z,10.95
2023-03-01T15:45:39.703Z,11.07
2023-03-01T15:48:21.373Z,10.65
2023-03-01T15:50:59.184Z,11.27
2023-03-01T15:53:32.058Z,11.55
2023-03-01T15:56:02.351Z,11.57
2023-03-01T15:58:35.423Z,11.88
2023-03-01T16:01:05.957Z,11.88
2023-03-01T16:03:36.230Z,12.30
2023-03-01T16:06:06.883Z,12.50
2023-03-01T16:08:37.521Z,11.50
2023-03-01T16:11:09.311Z,11.00
2023-03-01T16:13:42.247Z,11.93
2023-03-01T16:16:17.343Z,12.02
2023-03-01T16:18:49.602Z,9.48
2023-03-01T16:21:26.066Z,8.82
2023-03-01T16:23:57.451Z,11.80
2023-03-01T16:26:27.726Z,11.63
2023-03-01T16:29:02.133Z,12.20
2023-03-01T16:31:32.893Z,11.77
2023-03-01T16:34:03.918Z,11.82
2023-03-01T16:36:34.290Z,11.55
2023-03-01T16:39:05.079Z,11.75
2023-03-01T16:41:35.362Z,11.52
2023-03-01T16:44:08.637Z,11.35
2023-03-01T16:46:38.987Z,11.23
2023-03-01T16:49:09.319Z,9.88
2023-03-01T16:51:39.761Z,11.40
2023-03-01T16:54:10.038Z,11.57
2023-03-01T16:56:40.810Z,10.27
2023-03-01T16:59:13.752Z,10.38
2023-03-01T17:01:44.134Z,9.98
2023-03-01T17:04:16.176Z,10.05
2023-03-01T17:06:47.845Z,10.27
2023-03-01T17:09:18.340Z,10.57
2023-03-01T17:11:48.579Z,11.13
2023-03-01T17:14:21.535Z,8.82
2023-03-01T17:16:53.945Z,9.95
2023-03-01T17:19:24.348Z,8.93
2023-03-01T17:21:54.617Z,10.23
2023-03-01T17:24:25.008Z,9.90
2023-03-01T17:26:55.371Z,9.25
2023-03-01T17:29:28.326Z,10.50
2023-03-01T17:31:59.187Z,10.88
2023-03-01T17:34:30.086Z,11.73
2023-03-01T17:37:00.423Z,10.90
2023-03-01T17:39:36.082Z,9.15
2023-03-01T17:42:08.434Z,9.80
2023-03-01T17:44:42.891Z,9.60
2023-03-01T17:47:26.886Z,8.57
2023-03-01T17:49:57.738Z,8.88
2023-03-01T17:52:28.054Z,9.07
2023-03-01T17:54:58.350Z,10.27
2023-03-01T17:57:28.552Z,7.25
2023-03-01T18:00:01.571Z,7.70
2023-03-01T18:02:41.895Z,9.55
2023-03-01T18:05:13.863Z,8.20
2023-03-01T18:07:44.090Z,7.82
2023-03-01T18:10:15.270Z,8.82
2023-03-01T18:12:45.551Z,8.07
2023-03-01T18:15:20.107Z,8.40
2023-03-01T18:17:50.578Z,7.68
2023-03-01T18:20:23.121Z,8.10
2023-03-01T18:22:54.143Z,8.40
2023-03-01T18:25:25.296Z,8.63
2023-03-01T18:27:55.799Z,9.40
2023-03-01T18:30:30.368Z,8.65
2023-03-01T18:33:01.021Z,8.63
2023-03-01T18:35:31.700Z,8.10
2023-03-01T18:38:02.180Z,9.23
2023-03-01T18:40:32.712Z,9.95
2023-03-01T18:43:03.004Z,9.02
2023-03-01T18:45:37.016Z,8.88
2023-03-01T18:48:07.703Z,9.73
2023-03-01T18:50:39.352Z,9.38
2023-03-01T18:53:09.929Z,8.95
2023-03-01T18:55:42.103Z,9.52
2023-03-01T18:58:16.593Z,9.85
2023-03-01T19:00:50.580Z,9.05
2023-03-01T19:03:22.052Z,9.23
2023-03-01T19:05:53.342Z,8.07
2023-03-01T19:08:24.018Z,8.95
2023-03-01T19:10:59.899Z,8.38
2023-03-01T19:13:34.948Z,8.88
2023-03-01T19:16:11.301Z,7.63
2023-03-01T19:18:50.945Z,8.60
2023-03-01T19:21:25.225Z,9.38
2023-03-01T19:23:56.298Z,8.57
2023-03-01T19:26:28.790Z,9.02
2023-03-01T19:28:59.739Z,8.82
2023-03-01T19:31:33.594Z,9.07
2023-03-01T19:34:11.368Z,8.80
2023-03-01T19:36:43.068Z,9.30
2023-03-01T19:39:17.558Z,12.07
2023-03-01T19:41:49.984Z,12.55
2023-03-01T19:44:24.960Z,12.73
2023-03-01T19:46:59.398Z,10.80
2023-03-01T19:49:30.336Z,8.65
2023-03-01T19:52:00.652Z,9.98
2023-03-01T19:54:30.954Z,10.07
2023-03-01T19:57:02.069Z,10.05
2023-03-01T19:59:32.593Z,10.10
2023-03-01T20:02:05.687Z,10.07
2023-03-01T20:04:36.101Z,10.27
2023-03-01T20:07:06.494Z,10.40
2023-03-01T20:09:36.862Z,10.82
2023-03-01T20:12:07.550Z,11.30
2023-03-01T20:14:37.958Z,10.23
2023-03-01T20:17:11.122Z,10.45
2023-03-01T20:19:41.607Z,11.10
2023-03-01T20:22:15.095Z,11.45
2023-03-01T20:24:45.710Z,11.13
2023-03-01T20:27:16.046Z,10.32
2023-03-01T20:29:46.294Z,10.52
2023-03-01T20:32:19.441Z,11.25
2023-03-01T20:34:49.967Z,10.60
2023-03-01T20:37:22.503Z,10.00
2023-03-01T20:39:53.259Z,10.95
2023-03-01T20:42:23.603Z,10.05
2023-03-01T20:44:54.360Z,10.27
2023-03-01T20:47:27.532Z,10.68
2023-03-01T20:49:59.108Z,11.18
2023-03-01T20:52:36.525Z,12.85
2023-03-01T20:55:12.068Z,10.73
2023-03-01T20:57:43.822Z,10.63
2023-03-01T21:00:15.471Z,11.57
2023-03-01T21:02:50.500Z,11.60
2023-03-01T21:05:21.349Z,12.52
2023-03-01T21:07:52.770Z,11.20
2023-03-01T21:10:23.096Z,10.55
2023-03-01T21:12:53.491Z,10.98
2023-03-01T21:15:29.501Z,11.25
2023-03-01T21:18:02.659Z,10.82
2023-03-01T21:20:33.037Z,10.98
2023-03-01T21:23:03.479Z,11.20
2023-03-01T21:25:38.605Z,10.98
2023-03-01T21:28:08.992Z,11.20
2023-03-01T21:30:39.599Z,10.93
2023-03-01T21:33:12.990Z,11.13
2023-03-01T21:35:43.528Z,11.07
2023-03-01T21:38:13.914Z,11.00
2023-03-01T21:40:44.172Z,11.90
2023-03-01T21:43:14.602Z,12.95
2023-03-01T21:45:44.982Z,11.73
2023-03-01T21:48:18.290Z,14.30
2023-03-01T21:50:51.087Z,13.98
2023-03-01T21:53:21.454Z,13.93
2023-03-01T21:55:52.375Z,14.75
2023-03-01T21:58:23.361Z,14.85
2023-03-01T22:00:54.018Z,18.92
2023-03-01T22:03:27.497Z,14.95
2023-03-01T22:05:58.984Z,13.05
2023-03-01T22:08:30.115Z,13.80
2023-03-01T22:11:00.425Z,12.90
2023-03-01T22:13:30.944Z,16.52
2023-03-01T22:16:03.529Z,17.33
2023-03-01T22:18:36.639Z,15.77
2023-03-01T22:21:11.244Z,12.93
2023-03-01T22:23:43.362Z,14.38
2023-03-01T22:26:26.067Z,15.23
2023-03-01T22:28:58.670Z,14.05
2023-03-01T22:31:29.969Z,15.70
2023-03-01T22:34:03.644Z,13.45
2023-03-01T22:36:34.362Z,13.13
2023-03-01T22:39:05.089Z,13.65
2023-03-01T22:41:37.358Z,12.40
2023-03-01T22:44:08.375Z,11.60
2023-03-01T22:46:38.770Z,11.55
2023-03-01T22:49:11.941Z,12.60
2023-03-01T22:51:44.105Z,16.60
2023-03-01T22:54:15.291Z,20.45
2023-03-01T22:56:46.522Z,20.90
2023-03-01T22:59:19.748Z,25.25
2023-03-01T23:01:50.314Z,18.73
2023-03-01T23:04:25.193Z,12.38
2023-03-01T23:06:56.973Z,11.40
2023-03-01T23:09:30.136Z,9.80
2023-03-01T23:12:01.190Z,11.52
2023-03-01T23:14:34.171Z,9.73
2023-03-01T23:17:05.853Z,12.43
2023-03-01T23:19:38.855Z,10.60
2023-03-01T23:22:09.317Z,12.50
2023-03-01T23:24:42.301Z,11.50
2023-03-01T23:27:15.662Z,11.88
2023-03-01T23:29:47.019Z,12.38
2023-03-01T23:32:17.747Z,11.52
2023-03-01T23:34:50.828Z,11.23
2023-03-01T23:37:21.163Z,11.70
2023-03-01T23:39:51.819Z,11.27
2023-03-01T23:42:22.138Z,12.05
2023-03-01T23:44:52.499Z,12.25
2023-03-01T23:47:25.522Z,11.45
2023-03-01T23:49:59.157Z,10.57
2023-03-01T23:52:29.690Z,11.63
2023-03-01T23:55:00.039Z,10.98
2023-03-01T23:57:30.306Z,11.50
